Time;durP1;ratioP1;P1;durP2;ratioP2;P2;SDS_P1;SDS_P2;PMS_P1;PMS_P2;Temp;Humidity;BMP_temperature;BMP_pressure;BME280_temperature;BME280_humidity;BME280_pressure;Samples;Min_cycle;Max_cycle;Signal;HPM_P1;HPM_P2
2022/12/30 00:01:15;;;;;;;15.30;5.40;;;;;;;11.80;69.87;102278.52;1709167;83;21038;-57
2022/12/30 00:03:42;;;;;;;14.70;5.33;;;;;;;11.80;69.82;102275.91;1706413;83;21580;-57
2022/12/30 00:06:16;;;;;;;18.12;6.15;;;;;;;11.79;69.82;102271.55;1709344;83;21066;-57
2022/12/30 00:08:48;;;;;;;15.88;5.62;;;;;;;11.78;69.88;102271.14;1622963;88;21137;-56
2022/12/30 00:11:28;;;;;;;14.33;5.87;;;;;;;11.78;69.86;102271.14;1622880;88;21074;-57
2022/12/30 00:34:17;;;;;;;16.15;5.95;;;;;;;11.73;69.78;102284.61;1528625;92;21121;-57
2022/12/30 00:36:44;;;;;;;16.93;6.53;;;;;;;11.74;69.72;102283.33;1535303;92;21607;-57
2022/12/30 00:39:12;;;;;;;19.85;7.53;;;;;;;11.75;69.58;102278.95;1537694;91;21146;-58
2022/12/30 00:44:24;;;;;;;17.77;6.95;;;;;;;11.74;69.48;102286.36;1509302;93;21083;-57
2022/12/30 00:46:51;;;;;;;17.10;6.80;;;;;;;11.71;69.51;102287.66;1507718;93;21162;-57
2022/12/30 00:57:34;;;;;;;15.28;6.60;;;;;;;11.67;69.39;102267.67;1537223;90;21065;-57
2022/12/30 01:00:00;;;;;;;17.37;7.08;;;;;;;11.66;69.26;102267.23;1549388;91;21057;-57
2022/12/30 01:02:27;;;;;;;14.70;7.33;;;;;;;11.64;69.11;102264.63;1578562;89;21667;-57
2022/12/30 01:04:54;;;;;;;14.80;6.70;;;;;;;11.63;69.03;102265.91;1596224;88;21075;-57
2022/12/30 01:07:21;;;;;;;17.42;6.97;;;;;;;11.64;68.92;102261.15;1621725;87;21090;-57
2022/12/30 01:09:48;;;;;;;13.28;7.15;;;;;;;11.64;68.69;102259.84;1623620;86;21096;-57
2022/12/30 01:12:15;;;;;;;14.98;6.92;;;;;;;11.65;68.53;102261.14;1598245;88;21164;-57
2022/12/30 01:14:45;;;;;;;13.18;6.55;;;;;;;11.62;68.25;102259.86;1679483;84;21517;-57
2022/12/30 01:17:17;;;;;;;12.30;7.55;;;;;;;11.59;68.17;102259.84;1621370;87;21045;-57
2022/12/30 01:19:44;;;;;;;11.88;7.28;;;;;;;11.59;67.94;102254.63;1622844;87;21097;-57
2022/12/30 01:22:10;;;;;;;13.00;7.75;;;;;;;11.59;67.75;102255.06;1659143;83;21050;-57
2022/12/30 01:24:37;;;;;;;12.25;6.85;;;;;;;11.56;67.62;102245.96;1694608;83;21050;-57
2022/12/30 01:27:04;;;;;;;14.03;7.55;;;;;;;11.55;67.53;102241.59;1687174;83;21066;-57
2022/12/30 01:29:36;;;;;;;13.62;7.08;;;;;;;11.51;67.48;102245.09;1671865;83;21090;-57
2022/12/30 01:32:04;;;;;;;21.45;8.05;;;;;;;11.48;67.53;102248.56;1597130;88;21055;-57
2022/12/30 01:34:32;;;;;;;15.95;8.23;;;;;;;11.46;67.53;102245.97;1593936;89;21647;-57
2022/12/30 01:36:59;;;;;;;16.55;8.18;;;;;;;11.40;67.61;102248.58;1587597;89;21081;-57
2022/12/30 01:39:25;;;;;;;12.35;7.62;;;;;;;11.37;67.66;102243.36;1599888;88;21125;-57
2022/12/30 01:41:55;;;;;;;11.25;7.12;;;;;;;11.34;67.74;102236.87;1587518;88;21103;-58
2022/12/30 01:44:52;;;;;;;12.68;7.87;;;;;;;11.32;67.65;102234.70;1596229;88;21527;-57
2022/12/30 01:47:27;;;;;;;15.55;8.33;;;;;;;11.29;67.67;102234.69;1595873;88;21167;-57
2022/12/30 01:49:59;;;;;;;14.85;7.50;;;;;;;11.28;67.56;102228.19;1590450;88;21035;-57
2022/12/30 01:52:26;;;;;;;;;;;;;;;11.25;67.57;102230.34;1605797;88;21568;-57
2022/12/30 01:54:57;;;;;;;13.05;7.30;;;;;;;11.24;67.61;102232.54;1592282;88;20154;-57
2022/12/30 01:57:24;;;;;;;11.90;7.28;;;;;;;11.22;67.70;102232.98;1599892;87;21560;-57
2022/12/30 01:59:50;;;;;;;13.32;7.70;;;;;;;11.21;67.61;102227.31;1584820;89;21108;-57
2022/12/30 02:02:17;;;;;;;20.05;8.85;;;;;;;11.23;67.39;102233.39;1596045;88;21108;-57
2022/12/30 02:04:43;;;;;;;13.55;8.00;;;;;;;11.22;67.25;102230.37;1593692;88;21111;-57
2022/12/30 02:07:33;;;;;;;19.45;9.30;;;;;;;11.22;67.29;102224.28;1588843;89;21075;-57
2022/12/30 02:10:00;;;;;;;17.85;9.03;;;;;;;11.22;67.17;102225.16;1593504;87;21155;-57
2022/12/30 02:12:26;;;;;;;21.90;8.65;;;;;;;11.21;66.92;102216.89;1589523;89;21080;-57
2022/12/30 02:14:54;;;;;;;16.87;9.25;;;;;;;11.21;66.85;102222.10;1643442;85;21066;-57
2022/12/30 02:18:07;;;;;;;17.05;8.33;;;;;;;11.20;66.54;102226.91;1658903;85;21056;-58
2022/12/30 02:21:16;;;;;;;17.48;9.50;;;;;;;11.16;66.68;102218.66;1672566;84;21046;-57
2022/12/30 02:24:03;;;;;;;20.52;10.28;;;;;;;11.12;66.59;102220.83;1665204;84;21593;-57
2022/12/30 02:26:57;;;;;;;16.48;8.40;;;;;;;11.10;66.55;102219.97;1680513;84;21113;-57
2022/12/30 02:29:45;;;;;;;21.27;10.03;;;;;;;11.10;66.47;102222.57;1751542;80;21074;-57
2022/12/30 02:32:32;;;;;;;19.80;10.28;;;;;;;11.06;66.41;102219.53;1742161;81;21047;-57
2022/12/30 02:35:13;;;;;;;24.40;10.58;;;;;;;11.04;66.49;102214.77;1753414;81;21014;-57
2022/12/30 02:38:19;;;;;;;21.15;9.70;;;;;;;11.03;66.53;102218.22;1740745;80;21078;-57
2022/12/30 02:46:43;;;;;;;18.25;8.80;;;;;;;11.01;66.54;102212.14;1656162;85;20162;-57
2022/12/30 02:49:10;;;;;;;20.23;10.15;;;;;;;11.01;66.58;102212.14;1584151;89;21166;-57
2022/12/30 02:54:24;;;;;;;16.25;9.20;;;;;;;11.02;66.38;102211.29;1573002;90;21134;-57
2022/12/30 02:56:51;;;;;;;14.25;8.83;;;;;;;11.03;66.33;102205.20;1570317;91;21093;-57
2022/12/30 03:05:55;;;;;;;17.52;9.55;;;;;;;11.04;66.21;102206.95;1508984;93;21143;-57
2022/12/30 03:08:39;;;;;;;16.97;9.13;;;;;;;11.03;66.08;102198.69;1476667;96;21089;-57
2022/12/30 03:11:16;;;;;;;18.90;9.43;;;;;;;11.03;66.14;102200.41;1506997;93;21119;-57
2022/12/30 03:13:54;;;;;;;18.73;8.88;;;;;;;11.03;65.94;102199.98;1509390;93;21064;-57
2022/12/30 03:16:38;;;;;;;22.27;9.05;;;;;;;11.03;65.86;102202.59;1510549;93;21169;-57
2022/12/30 03:19:15;;;;;;;16.15;8.58;;;;;;;11.03;65.77;102199.98;1507977;93;21111;-57
2022/12/30 03:21:41;;;;;;;18.52;8.60;;;;;;;11.01;65.58;102196.52;1478479;95;21142;-57
2022/12/30 03:27:05;;;;;;;20.08;9.30;;;;;;;11.05;65.12;102199.97;1516238;94;21378;-57
2022/12/30 03:29:48;;;;;;;24.67;10.82;;;;;;;11.06;65.08;102213.02;1518747;93;21219;-57
2022/12/30 03:32:16;;;;;;;24.25;10.48;;;;;;;11.06;65.01;102199.13;1517124;93;21049;-57
2022/12/30 03:34:44;;;;;;;21.25;10.35;;;;;;;11.05;64.97;102198.25;1510190;93;21108;-57
2022/12/30 03:37:29;;;;;;;19.07;9.25;;;;;;;11.08;64.99;102193.05;1459007;94;21073;-57
2022/12/30 03:40:06;;;;;;;22.50;8.85;;;;;;;11.09;65.04;102201.28;1514500;93;21136;-58
2022/12/30 03:42:33;;;;;;;19.17;9.00;;;;;;;11.09;65.06;102202.58;1583278;90;21081;-57
2022/12/30 03:45:00;;;;;;;16.57;8.53;;;;;;;11.10;65.04;102206.94;1523153;91;21094;-57
2022/12/30 03:47:26;;;;;;;31.10;10.30;;;;;;;11.09;64.98;102202.58;1604509;88;21101;-57
2022/12/30 03:49:53;;;;;;;21.55;9.63;;;;;;;11.10;65.06;102205.64;1605481;88;21042;-57
2022/12/30 03:52:22;;;;;;;17.15;8.85;;;;;;;11.11;65.11;102206.48;1630775;85;21087;-57
2022/12/30 03:54:49;;;;;;;16.52;9.30;;;;;;;11.12;65.28;102210.41;1697502;83;21045;-57
2022/12/30 03:57:17;;;;;;;17.73;9.98;;;;;;;11.12;65.40;102205.20;1682614;83;21190;-57
2022/12/30 03:59:44;;;;;;;15.72;9.08;;;;;;;11.14;65.61;102202.16;1704329;83;21076;-57
2022/12/30 04:02:10;;;;;;;14.23;8.80;;;;;;;11.16;65.67;102196.94;1694916;84;21084;-57
2022/12/30 04:04:37;;;;;;;13.80;8.03;;;;;;;11.16;65.63;102199.12;1696631;84;21046;-57
2022/12/30 04:07:04;;;;;;;16.57;10.45;;;;;;;11.17;65.62;102206.05;1700923;83;21136;-57
2022/12/30 04:09:30;;;;;;;16.48;9.13;;;;;;;11.17;65.64;102209.95;1673775;84;21124;-57
2022/12/30 04:11:57;;;;;;;16.07;8.93;;;;;;;11.18;65.66;102210.41;1694806;83;21746;-57
2022/12/30 04:14:23;;;;;;;15.25;10.35;;;;;;;11.20;65.54;102206.48;1695083;84;21150;-57
2022/12/30 04:16:50;;;;;;;15.43;9.10;;;;;;;11.20;65.37;102208.66;1696266;83;21149;-57
2022/12/30 04:19:17;;;;;;;12.93;9.50;;;;;;;11.21;65.18;102205.17;1727449;82;21012;-57
2022/12/30 04:21:44;;;;;;;13.95;9.25;;;;;;;11.22;65.09;102214.73;1705953;83;21071;-57
2022/12/30 04:24:11;;;;;;;16.20;9.58;;;;;;;11.22;64.82;102211.25;1711946;83;21078;-57
2022/12/30 04:26:37;;;;;;;16.70;8.83;;;;;;;11.22;64.50;102214.73;1712626;82;21593;-57
2022/12/30 04:29:04;;;;;;;13.93;9.10;;;;;;;11.20;64.24;102213.88;1711041;83;21038;-57
2022/12/30 04:31:32;;;;;;;13.18;9.15;;;;;;;11.19;64.09;102214.73;1719815;82;21061;-57
2022/12/30 04:33:59;;;;;;;15.32;9.08;;;;;;;11.17;63.87;102208.65;1718724;82;21514;-57
2022/12/30 04:36:25;;;;;;;19.25;9.43;;;;;;;11.15;63.66;102210.39;1694177;83;20991;-57
2022/12/30 04:38:52;;;;;;;17.80;9.60;;;;;;;11.11;63.47;102208.66;1681960;84;21058;-57
2022/12/30 04:41:20;;;;;;;12.07;8.78;;;;;;;11.10;63.30;102208.67;1685771;83;21530;-57
2022/12/30 04:43:47;;;;;;;13.53;8.85;;;;;;;11.09;63.16;102216.91;1690782;83;21058;-57
2022/12/30 04:46:14;;;;;;;11.33;8.25;;;;;;;11.06;62.96;102215.63;1682295;84;21060;-57
2022/12/30 04:48:40;;;;;;;11.68;7.95;;;;;;;11.05;62.82;102212.58;1689231;83;21175;-57
2022/12/30 04:51:07;;;;;;;14.13;8.75;;;;;;;11.04;62.65;102219.97;1688555;84;21057;-57
2022/12/30 04:53:33;;;;;;;13.72;9.35;;;;;;;11.03;62.48;102219.95;1690553;83;21152;-57
2022/12/30 04:56:00;;;;;;;13.65;9.75;;;;;;;11.01;62.28;102215.17;1690014;82;21375;-57
2022/12/30 04:58:27;;;;;;;15.23;9.53;;;;;;;10.98;62.13;102223.88;1719149;82;21075;-57
2022/12/30 05:00:53;;;;;;;10.70;8.90;;;;;;;10.94;61.96;102218.20;1748999;80;21100;-57
2022/12/30 05:03:20;;;;;;;13.40;9.63;;;;;;;10.92;61.86;102221.25;1756873;80;21560;-57
2022/12/30 05:05:47;;;;;;;11.18;8.43;;;;;;;10.90;61.88;102220.37;1751671;81;21020;-57
2022/12/30 05:08:13;;;;;;;12.15;9.08;;;;;;;10.88;61.79;102215.61;1763075;80;21542;-57
2022/12/30 05:10:40;;;;;;;15.28;10.20;;;;;;;10.86;61.74;102218.64;1759731;80;21125;-57
2022/12/30 05:13:07;;;;;;;12.10;9.10;;;;;;;10.83;61.73;102214.75;1774953;80;21534;-57
2022/12/30 05:15:34;;;;;;;12.55;9.08;;;;;;;10.83;61.71;102212.15;1770986;80;21001;-57
2022/12/30 05:18:01;;;;;;;14.93;9.20;;;;;;;10.82;61.77;102215.61;1755964;80;21043;-57
2022/12/30 05:20:27;;;;;;;13.15;9.33;;;;;;;10.82;61.75;102216.06;1768644;79;21544;-57
2022/12/30 05:22:55;;;;;;;12.30;9.13;;;;;;;10.81;61.71;102224.30;1756923;80;21053;-57
2022/12/30 05:28:07;;;;;;;15.43;9.75;;;;;;;10.82;61.56;102217.37;1763981;80;21029;-57
2022/12/30 05:30:34;;;;;;;18.05;10.63;;;;;;;10.81;61.50;102207.38;1760554;80;21038;-57
2022/12/30 05:33:00;;;;;;;13.72;10.60;;;;;;;10.80;61.44;102213.44;1767318;80;21549;-57
2022/12/30 05:35:27;;;;;;;14.50;10.60;;;;;;;10.77;61.48;102212.15;1761711;80;21102;-57
2022/12/30 05:37:53;;;;;;;12.78;9.88;;;;;;;10.76;61.40;102215.61;1767422;80;21105;-57
2022/12/30 05:40:20;;;;;;;18.05;10.60;;;;;;;10.73;61.50;102223.43;1762663;80;21007;-57
2022/12/30 05:42:47;;;;;;;20.23;10.45;;;;;;;10.70;61.53;102219.51;1764345;80;21077;-57
2022/12/30 05:45:13;;;;;;;14.35;10.32;;;;;;;10.70;61.38;102228.62;1755845;80;21030;-57
2022/12/30 05:47:40;;;;;;;14.43;10.08;;;;;;;10.68;61.11;102224.27;1755125;80;21548;-57
2022/12/30 05:50:08;;;;;;;13.75;10.50;;;;;;;10.66;60.78;102226.87;1752757;81;21016;-57
2022/12/30 05:52:35;;;;;;;11.73;9.00;;;;;;;10.65;60.29;102231.67;1758237;80;21577;-57
2022/12/30 05:55:01;;;;;;;12.85;9.58;;;;;;;10.64;59.92;102231.22;1766470;80;21505;-57
2022/12/30 05:57:29;;;;;;;12.00;9.13;;;;;;;10.62;59.65;102240.33;1756369;80;21535;-57
2022/12/30 05:59:55;;;;;;;13.55;10.13;;;;;;;10.62;59.54;102239.45;1769071;80;21076;-57
2022/12/30 06:02:22;;;;;;;12.90;9.05;;;;;;;10.61;59.30;102235.13;1768656;80;21627;-57
2022/12/30 06:04:48;;;;;;;12.58;9.40;;;;;;;10.60;59.13;102236.86;1754433;80;21063;-57
2022/12/30 06:07:15;;;;;;;12.73;9.68;;;;;;;10.60;59.04;102245.09;1760554;80;21029;-57
2022/12/30 06:09:42;;;;;;;11.65;9.48;;;;;;;10.57;58.80;102245.11;1786178;80;21509;-57
2022/12/30 06:12:08;;;;;;;12.20;9.53;;;;;;;10.54;58.51;102242.48;1753059;80;21081;-57
2022/12/30 06:14:35;;;;;;;11.85;10.00;;;;;;;10.52;58.05;102246.81;1746429;81;21615;-57
2022/12/30 06:17:01;;;;;;;12.30;9.53;;;;;;;10.49;57.76;102252.00;1763134;80;21026;-57
2022/12/30 06:19:28;;;;;;;12.82;9.50;;;;;;;10.46;57.67;102254.61;1746150;80;21141;-57
2022/12/30 06:21:56;;;;;;;9.95;8.73;;;;;;;10.42;57.76;102255.05;1761735;80;21033;-57
2022/12/30 06:24:22;;;;;;;10.38;9.23;;;;;;;10.41;57.79;102253.29;1765161;80;21564;-57
2022/12/30 06:26:49;;;;;;;15.35;9.68;;;;;;;10.43;57.75;102255.47;1757720;80;21132;-57
2022/12/30 06:29:16;;;;;;;11.85;9.55;;;;;;;10.46;57.54;102255.91;1767584;80;20996;-57
2022/12/30 06:31:42;;;;;;;14.60;9.73;;;;;;;10.48;57.32;102250.28;1762104;80;21015;-57
2022/12/30 06:34:10;;;;;;;14.83;9.90;;;;;;;10.47;57.22;102253.73;1755524;80;21045;-57
2022/12/30 06:36:37;;;;;;;14.87;10.70;;;;;;;10.49;56.92;102257.20;1756713;80;21090;-57
2022/12/30 06:39:03;;;;;;;14.90;11.08;;;;;;;10.48;56.86;102252.88;1763641;80;21045;-57
2022/12/30 06:41:30;;;;;;;15.35;11.43;;;;;;;10.48;56.69;102253.76;1747456;80;21030;-57
2022/12/30 06:43:57;;;;;;;15.20;11.48;;;;;;;10.48;56.46;102260.27;1758618;80;21138;-57
2022/12/30 06:46:24;;;;;;;15.93;11.30;;;;;;;10.48;56.34;102263.29;1753693;80;21538;-57
2022/12/30 06:48:51;;;;;;;14.93;9.43;;;;;;;10.48;56.46;102260.69;1762088;80;21090;-57
2022/12/30 06:51:17;;;;;;;11.80;9.83;;;;;;;10.48;56.56;102260.69;1765619;80;21117;-57
2022/12/30 06:53:44;;;;;;;13.78;10.23;;;;;;;10.49;56.69;102261.98;1768184;80;21037;-57
2022/12/30 06:56:10;;;;;;;10.25;9.10;;;;;;;10.51;56.76;102273.69;1754655;80;21560;-57
2022/12/30 06:58:37;;;;;;;12.70;10.40;;;;;;;10.51;56.85;102260.67;1762008;80;20975;-57
2022/12/30 07:01:03;;;;;;;12.88;10.18;;;;;;;10.53;56.92;102260.28;1770377;80;21522;-57
2022/12/30 07:03:31;;;;;;;16.67;11.70;;;;;;;10.55;56.91;102259.85;1779325;80;21027;-57
2022/12/30 07:05:57;;;;;;;16.57;11.43;;;;;;;10.57;56.96;102265.93;1782838;80;21483;-57
2022/12/30 07:08:25;;;;;;;16.45;11.33;;;;;;;10.57;56.93;102265.93;1753146;80;21505;-57
2022/12/30 07:10:54;;;;;;;15.23;11.75;;;;;;;10.60;57.00;102268.52;1768610;80;21046;-57
2022/12/30 07:13:20;;;;;;;14.28;10.30;;;;;;;10.62;56.96;102275.48;1752823;81;21031;-57
2022/12/30 07:15:47;;;;;;;13.88;11.12;;;;;;;10.65;56.86;102274.63;1749018;81;21042;-57
2022/12/30 07:18:14;;;;;;;14.07;11.03;;;;;;;10.67;56.82;102275.49;1775009;80;21826;-57
2022/12/30 07:20:40;;;;;;;13.83;11.33;;;;;;;10.67;56.73;102276.80;1770499;80;22148;-57
2022/12/30 07:23:07;;;;;;;15.48;11.38;;;;;;;10.68;56.75;102274.61;1770534;80;21069;-57
2022/12/30 07:25:34;;;;;;;14.63;10.65;;;;;;;10.69;56.82;102272.88;1763424;80;21063;-57
2022/12/30 07:28:01;;;;;;;12.50;10.70;;;;;;;10.67;56.79;102270.28;1763897;80;21557;-58
2022/12/30 07:30:29;;;;;;;15.13;12.25;;;;;;;10.67;56.70;102267.68;1763001;80;21046;-57
2022/12/30 07:32:55;;;;;;;12.73;10.85;;;;;;;10.67;56.68;102275.49;1775689;80;21018;-57
2022/12/30 07:35:22;;;;;;;11.75;10.20;;;;;;;10.68;56.65;102278.52;1761937;80;21011;-57
2022/12/30 07:37:50;;;;;;;14.68;11.10;;;;;;;10.71;56.58;102277.23;1749549;80;21493;-57
2022/12/30 07:40:17;;;;;;;15.45;10.48;;;;;;;10.73;56.55;102279.41;1756811;80;21092;-57
2022/12/30 07:42:44;;;;;;;13.75;11.12;;;;;;;10.77;56.46;102275.06;1749920;81;21082;-57
2022/12/30 07:45:10;;;;;;;13.40;10.63;;;;;;;10.79;56.37;102270.30;1749349;80;21054;-57
2022/12/30 07:47:37;;;;;;;13.13;10.48;;;;;;;10.83;56.16;102277.25;1735885;80;21537;-57
2022/12/30 07:50:06;;;;;;;14.10;11.25;;;;;;;10.85;56.16;102278.12;1740309;81;21026;-57
2022/12/30 07:52:32;;;;;;;11.70;10.48;;;;;;;10.89;56.10;102277.67;1713759;82;21019;-58
2022/12/30 07:54:59;;;;;;;12.63;10.20;;;;;;;10.87;56.20;102292.01;1725865;82;21118;-57
2022/12/30 07:57:28;;;;;;;15.00;10.45;;;;;;;10.88;56.37;102282.47;1759363;80;21520;-57
2022/12/30 07:59:55;;;;;;;12.47;10.10;;;;;;;10.87;56.72;102292.01;1767240;80;21061;-57
2022/12/30 08:02:23;;;;;;;12.15;10.25;;;;;;;10.90;56.75;102286.78;1755249;80;21094;-57
2022/12/30 08:04:50;;;;;;;12.37;9.75;;;;;;;10.93;56.86;102301.55;1757180;80;21547;-57
2022/12/30 08:07:19;;;;;;;12.90;10.78;;;;;;;10.96;56.81;102301.15;1755092;80;21065;-57
2022/12/30 08:09:45;;;;;;;13.30;11.08;;;;;;;11.02;56.84;102299.85;1757338;80;21046;-57
2022/12/30 08:12:12;;;;;;;12.55;10.32;;;;;;;11.10;56.85;102305.05;1762910;80;21595;-57
2022/12/30 08:14:39;;;;;;;14.18;11.05;;;;;;;11.15;56.99;102306.78;1755774;80;21037;-59
2022/12/30 08:17:06;;;;;;;15.55;10.70;;;;;;;11.21;57.09;102312.00;1754907;80;21081;-57
2022/12/30 08:19:33;;;;;;;11.20;9.75;;;;;;;11.30;57.07;102315.92;1766288;80;21526;-57
2022/12/30 08:21:59;;;;;;;15.13;10.50;;;;;;;11.38;57.05;102317.21;1756944;80;21021;-57
2022/12/30 08:24:26;;;;;;;11.57;9.68;;;;;;;11.45;57.06;102311.14;1756089;80;21581;-57
2022/12/30 08:26:53;;;;;;;15.18;11.22;;;;;;;11.51;56.97;102311.13;1751375;80;21034;-57
2022/12/30 08:29:20;;;;;;;14.75;11.00;;;;;;;11.60;56.93;102307.66;1754863;80;21042;-57
2022/12/30 08:31:49;;;;;;;12.88;10.43;;;;;;;11.68;57.03;102311.14;1761416;80;21034;-56
2022/12/30 08:34:19;;;;;;;11.90;10.00;;;;;;;11.77;57.02;102317.63;1770023;80;21018;-57
2022/12/30 08:36:46;;;;;;;13.32;10.58;;;;;;;11.86;57.00;102322.84;1756145;80;21054;-57
2022/12/30 08:39:13;;;;;;;12.33;10.45;;;;;;;11.91;56.80;102319.80;1762880;80;21565;-58
2022/12/30 08:41:42;;;;;;;15.45;11.35;;;;;;;11.96;56.75;102312.81;1770626;80;20994;-57
2022/12/30 08:44:09;;;;;;;12.15;10.78;;;;;;;12.01;56.31;102309.31;1782065;80;21026;-57
2022/12/30 08:46:38;;;;;;;14.85;12.00;;;;;;;12.07;56.13;102304.10;1759478;80;21078;-57
2022/12/30 08:49:04;;;;;;;15.55;11.70;;;;;;;12.11;56.18;102307.56;1762775;80;21577;-57
2022/12/30 08:51:31;;;;;;;13.15;10.48;;;;;;;12.14;55.92;102303.19;1786768;80;21104;-57
2022/12/30 08:53:58;;;;;;;14.00;11.08;;;;;;;12.17;55.90;102308.84;1774644;80;20995;-57
2022/12/30 08:56:27;;;;;;;13.30;10.72;;;;;;;12.18;55.83;102301.42;1768841;80;21043;-57
2022/12/30 08:58:54;;;;;;;11.83;10.58;;;;;;;12.21;55.90;102297.52;1754494;80;21061;-57
2022/12/30 09:01:25;;;;;;;14.68;10.70;;;;;;;12.24;55.99;102300.13;1754001;80;21043;-57
2022/12/30 09:03:52;;;;;;;15.18;11.50;;;;;;;12.28;55.95;102291.41;1731278;81;21045;-58
2022/12/30 09:06:21;;;;;;;15.58;12.05;;;;;;;12.32;55.86;102291.83;1714830;82;21031;-57
2022/12/30 09:08:49;;;;;;;16.40;12.68;;;;;;;12.36;55.70;102285.71;1725037;81;21137;-57
2022/12/30 09:11:20;;;;;;;13.58;11.75;;;;;;;12.40;55.57;102282.21;1719067;82;21135;-57
2022/12/30 09:13:47;;;;;;;17.80;11.20;;;;;;;12.44;55.62;102280.44;1696352;83;21051;-57
2022/12/30 09:16:16;;;;;;;15.35;11.20;;;;;;;12.49;55.66;102279.53;1702253;83;21107;-57
2022/12/30 09:18:42;;;;;;;17.87;11.95;;;;;;;12.53;55.65;102281.25;1702103;83;21095;-57
2022/12/30 09:21:09;;;;;;;16.60;10.72;;;;;;;12.56;55.42;102279.06;1712001;84;21048;-57
2022/12/30 09:23:36;;;;;;;17.25;10.60;;;;;;;12.59;55.65;102264.70;1690767;84;21551;-57
2022/12/30 09:26:04;;;;;;;16.40;10.63;;;;;;;12.61;56.40;102257.73;1693229;83;21001;-57
2022/12/30 09:28:30;;;;;;;18.25;10.93;;;;;;;12.62;57.29;102261.63;1695487;83;21043;-57
2022/12/30 09:30:58;;;;;;;19.10;10.80;;;;;;;12.65;57.92;102258.13;1698152;84;21574;-57
2022/12/30 09:33:24;;;;;;;14.50;10.32;;;;;;;12.67;58.34;102248.11;1689982;83;21052;-57
2022/12/30 09:35:51;;;;;;;16.05;10.40;;;;;;;12.73;58.62;102247.20;1702758;83;21064;-57
2022/12/30 09:38:17;;;;;;;18.37;10.48;;;;;;;12.75;59.04;102248.92;1695626;83;21176;-57
2022/12/30 09:41:06;;;;;;;14.07;10.65;;;;;;;12.78;59.19;102246.27;1704494;84;21155;-57
2022/12/30 09:43:58;;;;;;;18.15;10.35;;;;;;;12.82;59.22;102248.41;1705490;83;21854;-57
2022/12/30 09:46:47;;;;;;;18.85;10.05;;;;;;;12.84;59.23;102250.14;1666165;83;21110;-56
2022/12/30 09:49:33;;;;;;;13.40;9.90;;;;;;;12.87;59.07;102243.61;1658889;85;21090;-57
2022/12/30 09:52:13;;;;;;;19.23;11.10;;;;;;;12.91;59.16;102250.55;1603875;89;21574;-57
2022/12/30 09:54:44;;;;;;;16.40;9.45;;;;;;;12.91;59.39;102245.75;1597508;89;21127;-57
2022/12/30 10:00:21;;;;;;;13.60;10.38;;;;;;;13.02;59.43;102240.84;1573042;89;21086;-57
2022/12/30 10:02:56;;;;;;;15.80;11.00;;;;;;;13.06;59.26;102229.98;1592365;89;21133;-57
2022/12/30 10:05:37;;;;;;;15.75;10.38;;;;;;;13.12;59.31;102209.46;1599868;89;21055;-57
2022/12/30 10:08:24;;;;;;;13.50;10.70;;;;;;;13.14;59.56;102207.70;1575558;90;21142;-57
2022/12/30 10:11:26;;;;;;;14.75;10.40;;;;;;;13.21;59.56;102209.39;1562093;90;21114;-57
2022/12/30 10:13:53;;;;;;;13.38;11.78;;;;;;;13.26;59.53;102209.76;1504968;94;21124;-57
2022/12/30 10:16:44;;;;;;;15.03;11.28;;;;;;;13.31;59.54;102221.48;1480079;96;21154;-57
2022/12/30 10:19:32;;;;;;;16.48;12.03;;;;;;;13.35;59.50;102215.34;1480186;96;21173;-57
2022/12/30 10:22:13;;;;;;;15.95;11.75;;;;;;;13.38;59.31;102210.06;1438653;99;21609;-57
2022/12/30 10:25:20;;;;;;;15.45;9.88;;;;;;;13.41;59.15;102211.36;1448366;98;21134;-57
2022/12/30 10:27:49;;;;;;;17.45;11.53;;;;;;;13.44;59.17;102210.00;1486613;96;21102;-57
2022/12/30 10:30:21;;;;;;;15.32;10.65;;;;;;;13.47;59.04;102202.14;1533148;92;21058;-57
2022/12/30 10:33:00;;;;;;;17.17;11.60;;;;;;;13.50;58.87;102195.55;1539424;91;21169;-57
2022/12/30 10:35:32;;;;;;;19.40;11.53;;;;;;;13.52;58.93;102202.94;1541814;92;21084;-57
2022/12/30 10:38:02;;;;;;;;;;;;;;;13.54;58.82;102191.59;1540843;92;21206;-57
2022/12/30 10:40:40;;;;;;;13.43;9.90;;;;;;;13.56;58.84;102188.51;1524919;93;20164;-57
2022/12/30 10:43:28;;;;;;;16.02;10.50;;;;;;;13.56;58.94;102179.82;1510045;92;21085;-57
2022/12/30 10:46:11;;;;;;;14.50;10.65;;;;;;;13.53;59.11;102182.02;1478981;95;21148;-57
2022/12/30 10:49:07;;;;;;;13.35;11.30;;;;;;;13.51;59.28;102177.69;1482255;97;21675;-57
2022/12/30 10:51:34;;;;;;;14.83;11.30;;;;;;;13.52;59.57;102184.62;1478366;96;21086;-57
2022/12/30 10:54:01;;;;;;;16.02;10.78;;;;;;;13.53;59.71;102183.77;1477502;96;21133;-57
2022/12/30 10:56:30;;;;;;;13.10;10.45;;;;;;;13.55;59.69;102172.84;1467456;96;21159;-57
2022/12/30 10:59:15;;;;;;;14.28;9.95;;;;;;;13.57;59.64;102171.08;1493240;95;21188;-57
2022/12/30 11:01:44;;;;;;;15.60;11.33;;;;;;;13.57;59.63;102169.77;1492838;95;21606;-57
2022/12/30 11:04:32;;;;;;;17.65;9.98;;;;;;;13.58;59.64;102168.90;1510738;95;21226;-57
2022/12/30 11:07:01;;;;;;;15.98;10.40;;;;;;;13.61;59.75;102166.23;1488578;95;21158;-58
2022/12/30 11:09:27;;;;;;;14.90;10.70;;;;;;;13.64;59.59;102157.05;1491621;96;21075;-58
2022/12/30 11:14:44;;;;;;;14.35;10.78;;;;;;;13.58;59.77;102163.67;1477883;97;21118;-58
2022/12/30 11:17:22;;;;;;;15.05;10.28;;;;;;;13.53;59.82;102157.61;1499142;91;21163;-58
2022/12/30 11:19:52;;;;;;;17.55;10.63;;;;;;;13.50;59.87;102161.55;1603874;89;21102;-57
2022/12/30 11:22:19;;;;;;;15.55;10.70;;;;;;;13.47;59.93;102159.86;1575776;88;21043;-58
2022/12/30 11:25:00;;;;;;;18.23;10.90;;;;;;;13.45;59.96;102163.38;1632120;86;21042;-58
2022/12/30 11:27:43;;;;;;;15.40;10.88;;;;;;;13.41;60.16;102164.30;1606509;88;21091;-58
2022/12/30 11:30:30;;;;;;;18.50;11.15;;;;;;;13.35;60.35;102155.21;1610130;87;21712;-58
2022/12/30 11:32:59;;;;;;;17.35;11.78;;;;;;;13.32;60.61;102152.62;1592410;87;21624;-57
2022/12/30 11:35:46;;;;;;;15.90;10.72;;;;;;;13.28;60.79;102153.53;1613983;89;21542;-58
2022/12/30 11:38:36;;;;;;;18.45;11.15;;;;;;;13.25;60.94;102156.20;1615612;87;21172;-58
2022/12/30 11:41:23;;;;;;;15.93;11.97;;;;;;;13.26;61.01;102153.99;1580836;89;21092;-57
2022/12/30 11:44:04;;;;;;;16.80;10.05;;;;;;;13.28;61.10;102150.92;1607394;87;21052;-57
2022/12/30 11:46:40;;;;;;;12.33;9.68;;;;;;;13.31;61.19;102154.82;1609749;88;21108;-57
2022/12/30 11:49:28;;;;;;;13.55;9.80;;;;;;;13.37;61.25;102158.67;1580475;88;21051;-57
2022/12/30 11:52:05;;;;;;;25.37;12.18;;;;;;;13.40;61.23;102161.23;1601019;88;21018;-57
2022/12/30 11:54:46;;;;;;;15.13;11.80;;;;;;;13.45;61.28;102158.14;1608320;88;21097;-57
2022/12/30 11:57:34;;;;;;;14.47;9.95;;;;;;;13.48;61.24;102157.66;1608849;89;21611;-57
2022/12/30 12:00:05;;;;;;;14.10;9.35;;;;;;;13.50;61.25;102155.89;1529138;92;22199;-58
2022/12/30 12:02:36;;;;;;;14.75;9.50;;;;;;;13.55;61.24;102155.84;1522158;92;21140;-57
2022/12/30 12:05:26;;;;;;;9.98;7.45;;;;;;;13.56;61.05;102151.05;1494806;94;21114;-57
2022/12/30 12:08:00;;;;;;;15.30;9.43;;;;;;;13.55;61.05;102146.69;1451244;97;21217;-58
2022/12/30 12:10:35;;;;;;;15.10;8.58;;;;;;;13.50;61.21;102144.56;1460784;96;21068;-57
2022/12/30 12:13:23;;;;;;;16.85;8.63;;;;;;;13.47;61.37;102141.56;1439562;98;21742;-58
2022/12/30 12:15:52;;;;;;;12.15;7.75;;;;;;;13.44;61.65;102140.28;1443525;97;21169;-58
2022/12/30 12:18:28;;;;;;;12.28;7.78;;;;;;;13.43;61.76;102146.41;1460678;94;21160;-57
2022/12/30 12:21:23;;;;;;;15.35;8.58;;;;;;;13.45;61.80;102147.25;1477552;95;21307;-57
2022/12/30 12:24:24;;;;;;;14.68;8.80;;;;;;;13.44;61.87;102149.42;1460672;97;21097;-58
2022/12/30 12:27:09;;;;;;;11.33;8.15;;;;;;;13.42;61.97;102151.19;1451016;98;21187;-57
2022/12/30 12:29:36;;;;;;;15.80;7.85;;;;;;;13.40;62.12;102145.55;1489967;94;21113;-58
2022/12/30 12:32:27;;;;;;;9.90;7.45;;;;;;;13.38;62.29;102148.19;1474050;95;22596;-58